sensor_id;sensor_type;location;lat;lon;timestamp;pressure;altitude;pressure_sealevel;temperature;humidity
80184;BME280;69682;52.138;5.440;2023-08-17T00:01:40;102185.66;;;18.04;70.66
80184;BME280;69682;52.138;5.440;2023-08-17T00:04:07;102183.94;;;18.03;70.61
80184;BME280;69682;52.138;5.440;2023-08-17T00:06:34;102178.69;;;18.01;70.85
80184;BME280;69682;52.138;5.440;2023-08-17T00:09:01;102181.19;;;17.93;71.20
80184;BME280;69682;52.138;5.440;2023-08-17T00:11:27;102185.84;;;17.91;71.33
80184;BME280;69682;52.138;5.440;2023-08-17T00:13:54;102175.78;;;17.93;71.33
80184;BME280;69682;52.138;5.440;2023-08-17T00:16:20;102177.75;;;17.91;71.14
80184;BME280;69682;52.138;5.440;2023-08-17T00:18:49;102175.31;;;17.88;71.23
80184;BME280;69682;52.138;5.440;2023-08-17T00:21:15;102175.22;;;17.89;71.34
80184;BME280;69682;52.138;5.440;2023-08-17T00:23:42;102175.06;;;17.91;71.48
80184;BME280;69682;52.138;5.440;2023-08-17T00:26:09;102174.94;;;17.92;71.53
80184;BME280;69682;52.138;5.440;2023-08-17T00:28:35;102176.06;;;17.90;71.18
80184;BME280;69682;52.138;5.440;2023-08-17T00:31:02;102177.44;;;17.84;71.49
80184;BME280;69682;52.138;5.440;2023-08-17T00:33:29;102172.31;;;17.81;71.64
80184;BME280;69682;52.138;5.440;2023-08-17T00:35:56;102170.59;;;17.80;71.60
80184;BME280;69682;52.138;5.440;2023-08-17T00:38:22;102173.66;;;17.76;71.96
80184;BME280;69682;52.138;5.440;2023-08-17T00:40:49;102178.34;;;17.74;72.02
80184;BME280;69682;52.138;5.440;2023-08-17T00:43:15;102182.16;;;17.71;71.96
80184;BME280;69682;52.138;5.440;2023-08-17T00:45:44;102174.19;;;17.69;72.30
80184;BME280;69682;52.138;5.440;2023-08-17T00:48:13;102170.75;;;17.67;72.02
80184;BME280;69682;52.138;5.440;2023-08-17T00:50:40;102168.31;;;17.64;72.00
80184;BME280;69682;52.138;5.440;2023-08-17T00:53:07;102173.97;;;17.61;72.21
80184;BME280;69682;52.138;5.440;2023-08-17T00:55:39;102168.00;;;17.58;72.36
80184;BME280;69682;52.138;5.440;2023-08-17T00:58:07;102167.88;;;17.59;72.19
80184;BME280;69682;52.138;5.440;2023-08-17T01:00:34;102168.59;;;17.61;72.30
80184;BME280;69682;52.138;5.440;2023-08-17T01:03:00;102178.78;;;17.58;71.99
80184;BME280;69682;52.138;5.440;2023-08-17T01:05:27;102167.53;;;17.53;72.59
80184;BME280;69682;52.138;5.440;2023-08-17T01:07:55;102170.94;;;17.55;71.73
80184;BME280;69682;52.138;5.440;2023-08-17T01:10:21;102172.06;;;17.52;72.43
80184;BME280;69682;52.138;5.440;2023-08-17T01:15:21;102176.47;;;17.53;72.54
80184;BME280;69682;52.138;5.440;2023-08-17T01:18:04;102173.91;;;17.52;72.64
80184;BME280;69682;52.138;5.440;2023-08-17T01:20:33;102170.34;;;17.51;72.48
80184;BME280;69682;52.138;5.440;2023-08-17T01:23:04;102166.81;;;17.51;72.47
80184;BME280;69682;52.138;5.440;2023-08-17T01:25:31;102162.38;;;17.49;72.69
80184;BME280;69682;52.138;5.440;2023-08-17T01:28:03;102163.50;;;17.47;72.46
80184;BME280;69682;52.138;5.440;2023-08-17T01:30:49;102162.06;;;17.43;72.42
80184;BME280;69682;52.138;5.440;2023-08-17T01:33:24;102163.44;;;17.37;72.58
80184;BME280;69682;52.138;5.440;2023-08-17T01:35:54;102164.75;;;17.43;72.44
80184;BME280;69682;52.138;5.440;2023-08-17T01:38:25;102150.28;;;17.44;72.86
80184;BME280;69682;52.138;5.440;2023-08-17T01:40:52;102153.88;;;17.44;72.53
80184;BME280;69682;52.138;5.440;2023-08-17T01:43:20;102155.22;;;17.39;72.64
80184;BME280;69682;52.138;5.440;2023-08-17T01:45:47;102153.66;;;17.36;72.83
80184;BME280;69682;52.138;5.440;2023-08-17T01:48:14;102160.88;;;17.36;72.64
80184;BME280;69682;52.138;5.440;2023-08-17T01:50:40;102161.00;;;17.34;73.01
80184;BME280;69682;52.138;5.440;2023-08-17T01:53:07;102152.91;;;17.34;73.16
80184;BME280;69682;52.138;5.440;2023-08-17T01:55:34;102149.09;;;17.37;72.76
80184;BME280;69682;52.138;5.440;2023-08-17T01:58:03;102149.38;;;17.34;72.62
80184;BME280;69682;52.138;5.440;2023-08-17T02:00:30;102151.72;;;17.27;72.98
80184;BME280;69682;52.138;5.440;2023-08-17T02:02:57;102152.44;;;17.29;72.97
80184;BME280;69682;52.138;5.440;2023-08-17T02:05:23;102143.66;;;17.27;73.00
80184;BME280;69682;52.138;5.440;2023-08-17T02:07:50;102147.72;;;17.21;73.11
80184;BME280;69682;52.138;5.440;2023-08-17T02:10:17;102147.97;;;17.18;73.34
80184;BME280;69682;52.138;5.440;2023-08-17T02:12:43;102152.13;;;17.11;73.09
80184;BME280;69682;52.138;5.440;2023-08-17T02:15:10;102152.66;;;17.05;73.68
80184;BME280;69682;52.138;5.440;2023-08-17T02:17:37;102145.41;;;17.06;73.81
80184;BME280;69682;52.138;5.440;2023-08-17T02:20:04;102149.84;;;17.07;73.69
80184;BME280;69682;52.138;5.440;2023-08-17T02:22:30;102158.03;;;17.05;73.61
80184;BME280;69682;52.138;5.440;2023-08-17T02:24:57;102160.88;;;17.03;73.90
80184;BME280;69682;52.138;5.440;2023-08-17T02:27:23;102151.78;;;17.05;73.98
80184;BME280;69682;52.138;5.440;2023-08-17T02:29:50;102147.66;;;17.00;74.07
80184;BME280;69682;52.138;5.440;2023-08-17T02:32:17;102155.13;;;16.97;73.75
80184;BME280;69682;52.138;5.440;2023-08-17T02:34:44;102147.28;;;16.94;74.00
80184;BME280;69682;52.138;5.440;2023-08-17T02:37:10;102146.44;;;16.93;73.91
80184;BME280;69682;52.138;5.440;2023-08-17T02:39:37;102150.25;;;16.91;74.15
80184;BME280;69682;52.138;5.440;2023-08-17T02:42:03;102141.06;;;16.93;74.23
80184;BME280;69682;52.138;5.440;2023-08-17T02:44:30;102136.66;;;16.92;74.28
80184;BME280;69682;52.138;5.440;2023-08-17T02:46:57;102137.50;;;16.93;74.43
80184;BME280;69682;52.138;5.440;2023-08-17T02:49:23;102130.78;;;16.87;74.67
80184;BME280;69682;52.138;5.440;2023-08-17T02:51:50;102139.00;;;16.86;74.73
80184;BME280;69682;52.138;5.440;2023-08-17T02:54:16;102129.22;;;16.85;74.65
80184;BME280;69682;52.138;5.440;2023-08-17T02:56:43;102128.50;;;16.83;74.64
80184;BME280;69682;52.138;5.440;2023-08-17T02:59:09;102125.56;;;16.86;74.63
80184;BME280;69682;52.138;5.440;2023-08-17T03:01:36;102133.88;;;16.83;74.50
80184;BME280;69682;52.138;5.440;2023-08-17T03:04:03;102133.75;;;16.84;74.26
80184;BME280;69682;52.138;5.440;2023-08-17T03:06:29;102136.44;;;16.84;74.40
80184;BME280;69682;52.138;5.440;2023-08-17T03:08:56;102135.69;;;16.82;74.60
80184;BME280;69682;52.138;5.440;2023-08-17T03:11:22;102136.94;;;16.78;74.61
80184;BME280;69682;52.138;5.440;2023-08-17T03:13:49;102130.72;;;16.77;74.65
80184;BME280;69682;52.138;5.440;2023-08-17T03:16:15;102132.56;;;16.77;74.61
80184;BME280;69682;52.138;5.440;2023-08-17T03:18:42;102131.88;;;16.73;74.77
80184;BME280;69682;52.138;5.440;2023-08-17T03:21:11;102137.28;;;16.73;74.71
80184;BME280;69682;52.138;5.440;2023-08-17T03:23:37;102137.41;;;16.72;74.82
80184;BME280;69682;52.138;5.440;2023-08-17T03:26:04;102134.47;;;16.75;74.76
80184;BME280;69682;52.138;5.440;2023-08-17T03:28:31;102133.50;;;16.76;74.88
80184;BME280;69682;52.138;5.440;2023-08-17T03:31:02;102124.69;;;16.74;74.69
80184;BME280;69682;52.138;5.440;2023-08-17T03:33:29;102121.63;;;16.67;74.64
80184;BME280;69682;52.138;5.440;2023-08-17T03:35:56;102114.03;;;16.72;74.96
80184;BME280;69682;52.138;5.440;2023-08-17T03:38:22;102125.66;;;16.73;74.63
80184;BME280;69682;52.138;5.440;2023-08-17T03:40:49;102121.53;;;16.69;74.64
80184;BME280;69682;52.138;5.440;2023-08-17T03:43:15;102123.09;;;16.71;74.41
80184;BME280;69682;52.138;5.440;2023-08-17T03:45:42;102120.41;;;16.71;74.75
80184;BME280;69682;52.138;5.440;2023-08-17T03:48:09;102122.72;;;16.65;74.90
80184;BME280;69682;52.138;5.440;2023-08-17T03:50:36;102119.31;;;16.63;74.65
80184;BME280;69682;52.138;5.440;2023-08-17T03:53:05;102124.56;;;16.64;74.87
80184;BME280;69682;52.138;5.440;2023-08-17T03:55:32;102118.09;;;16.67;74.96
80184;BME280;69682;52.138;5.440;2023-08-17T03:57:59;102116.50;;;16.64;75.16
80184;BME280;69682;52.138;5.440;2023-08-17T04:00:25;102121.41;;;16.59;74.98
80184;BME280;69682;52.138;5.440;2023-08-17T04:02:52;102111.50;;;16.60;75.07
80184;BME280;69682;52.138;5.440;2023-08-17T04:05:18;102117.00;;;16.58;75.19
80184;BME280;69682;52.138;5.440;2023-08-17T04:07:45;102118.84;;;16.57;74.76
80184;BME280;69682;52.138;5.440;2023-08-17T04:10:13;102117.75;;;16.60;74.98
80184;BME280;69682;52.138;5.440;2023-08-17T04:12:40;102115.16;;;16.58;74.72
80184;BME280;69682;52.138;5.440;2023-08-17T04:15:07;102117.00;;;16.58;74.85
80184;BME280;69682;52.138;5.440;2023-08-17T04:17:33;102117.75;;;16.60;74.71
80184;BME280;69682;52.138;5.440;2023-08-17T04:20:00;102122.28;;;16.60;74.60
80184;BME280;69682;52.138;5.440;2023-08-17T04:22:30;102119.69;;;16.58;74.99
80184;BME280;69682;52.138;5.440;2023-08-17T04:24:57;102121.53;;;16.57;74.80
80184;BME280;69682;52.138;5.440;2023-08-17T04:27:23;102122.97;;;16.62;74.84
80184;BME280;69682;52.138;5.440;2023-08-17T04:29:50;102116.75;;;16.61;75.04
80184;BME280;69682;52.138;5.440;2023-08-17T04:32:20;102116.75;;;16.61;75.01
80184;BME280;69682;52.138;5.440;2023-08-17T04:34:47;102115.78;;;16.62;74.77
80184;BME280;69682;52.138;5.440;2023-08-17T04:37:14;102118.00;;;16.57;75.02
80184;BME280;69682;52.138;5.440;2023-08-17T04:39:41;102113.34;;;16.59;74.97
80184;BME280;69682;52.138;5.440;2023-08-17T04:42:09;102109.66;;;16.60;74.91
80184;BME280;69682;52.138;5.440;2023-08-17T04:44:36;102109.91;;;16.57;74.82
80184;BME280;69682;52.138;5.440;2023-08-17T04:47:03;102110.91;;;16.56;74.71
80184;BME280;69682;52.138;5.440;2023-08-17T04:49:29;102111.03;;;16.54;74.63
80184;BME280;69682;52.138;5.440;2023-08-17T04:51:56;102111.03;;;16.54;74.80
80184;BME280;69682;52.138;5.440;2023-08-17T04:54:22;102102.09;;;16.54;74.88
80184;BME280;69682;52.138;5.440;2023-08-17T04:56:49;102102.84;;;16.56;75.03
80184;BME280;69682;52.138;5.440;2023-08-17T04:59:15;102109.06;;;16.56;75.10
80184;BME280;69682;52.138;5.440;2023-08-17T05:01:42;102112.88;;;16.54;74.87
80184;BME280;69682;52.138;5.440;2023-08-17T05:04:09;102106.75;;;16.52;75.01
80184;BME280;69682;52.138;5.440;2023-08-17T05:06:35;102102.84;;;16.56;74.94
80184;BME280;69682;52.138;5.440;2023-08-17T05:09:04;102104.41;;;16.58;74.95
80184;BME280;69682;52.138;5.440;2023-08-17T05:11:32;102101.97;;;16.55;75.07
80184;BME280;69682;52.138;5.440;2023-08-17T05:13:59;102102.09;;;16.54;75.20
80184;BME280;69682;52.138;5.440;2023-08-17T05:16:25;102099.41;;;16.54;75.12
80184;BME280;69682;52.138;5.440;2023-08-17T05:18:52;102100.25;;;16.54;75.04
80184;BME280;69682;52.138;5.440;2023-08-17T05:21:19;102093.03;;;16.55;74.83
80184;BME280;69682;52.138;5.440;2023-08-17T05:23:45;102100.16;;;16.56;75.18
80184;BME280;69682;52.138;5.440;2023-08-17T05:26:12;102099.28;;;16.55;75.11
80184;BME280;69682;52.138;5.440;2023-08-17T05:28:41;102101.00;;;16.56;75.03
80184;BME280;69682;52.138;5.440;2023-08-17T05:31:08;102098.41;;;16.55;75.34
80184;BME280;69682;52.138;5.440;2023-08-17T05:33:35;102103.53;;;16.58;75.21
80184;BME280;69682;52.138;5.440;2023-08-17T05:36:02;102103.44;;;16.60;75.02
80184;BME280;69682;52.138;5.440;2023-08-17T05:38:29;102099.66;;;16.62;75.21
80184;BME280;69682;52.138;5.440;2023-08-17T05:40:57;102104.16;;;16.62;75.21
80184;BME280;69682;52.138;5.440;2023-08-17T05:43:24;102105.72;;;16.64;75.31
80184;BME280;69682;52.138;5.440;2023-08-17T05:45:51;102105.88;;;16.63;75.31
80184;BME280;69682;52.138;5.440;2023-08-17T05:48:19;102104.03;;;16.63;75.45
80184;BME280;69682;52.138;5.440;2023-08-17T05:50:47;102108.56;;;16.63;75.45
80184;BME280;69682;52.138;5.440;2023-08-17T05:53:13;102112.84;;;16.65;75.38
80184;BME280;69682;52.138;5.440;2023-08-17T05:55:40;102106.47;;;16.66;75.39
80184;BME280;69682;52.138;5.440;2023-08-17T05:58:07;102113.31;;;16.70;75.38
80184;BME280;69682;52.138;5.440;2023-08-17T06:00:33;102113.19;;;16.72;75.53
80184;BME280;69682;52.138;5.440;2023-08-17T06:03:00;102117.59;;;16.73;75.59
80184;BME280;69682;52.138;5.440;2023-08-17T06:05:30;102115.41;;;16.78;75.58
80184;BME280;69682;52.138;5.440;2023-08-17T06:07:57;102130.31;;;16.82;75.81
80184;BME280;69682;52.138;5.440;2023-08-17T06:10:24;102128.50;;;16.83;75.50
80184;BME280;69682;52.138;5.440;2023-08-17T06:12:54;102138.28;;;16.84;75.06
80184;BME280;69682;52.138;5.440;2023-08-17T06:15:22;102140.22;;;16.82;75.55
80184;BME280;69682;52.138;5.440;2023-08-17T06:17:49;102140.38;;;16.80;75.60
80184;BME280;69682;52.138;5.440;2023-08-17T06:20:19;102142.81;;;16.83;75.69
80184;BME280;69682;52.138;5.440;2023-08-17T06:22:47;102141.06;;;16.82;75.86
80184;BME280;69682;52.138;5.440;2023-08-17T06:25:14;102138.13;;;16.85;75.42
80184;BME280;69682;52.138;5.440;2023-08-17T06:27:42;102143.41;;;16.87;76.08
80184;BME280;69682;52.138;5.440;2023-08-17T06:30:10;102142.41;;;16.88;75.46
80184;BME280;69682;52.138;5.440;2023-08-17T06:32:37;102144.50;;;16.95;75.54
80184;BME280;69682;52.138;5.440;2023-08-17T06:35:04;102147.19;;;16.95;75.60
80184;BME280;69682;52.138;5.440;2023-08-17T06:37:30;102147.53;;;17.02;75.81
80184;BME280;69682;52.138;5.440;2023-08-17T06:39:57;102147.25;;;17.05;75.81
80184;BME280;69682;52.138;5.440;2023-08-17T06:42:24;102147.84;;;17.09;75.68
80184;BME280;69682;52.138;5.440;2023-08-17T06:44:50;102150.56;;;17.09;75.48
80184;BME280;69682;52.138;5.440;2023-08-17T06:47:17;102147.59;;;17.12;75.41
80184;BME280;69682;52.138;5.440;2023-08-17T06:49:43;102148.94;;;17.17;75.61
80184;BME280;69682;52.138;5.440;2023-08-17T06:52:10;102145.88;;;17.22;75.50
80184;BME280;69682;52.138;5.440;2023-08-17T06:54:37;102149.88;;;17.28;75.28
80184;BME280;69682;52.138;5.440;2023-08-17T06:57:04;102143.41;;;17.30;75.13
80184;BME280;69682;52.138;5.440;2023-08-17T06:59:31;102148.78;;;17.30;75.30
80184;BME280;69682;52.138;5.440;2023-08-17T07:01:59;102151.22;;;17.33;74.96
80184;BME280;69682;52.138;5.440;2023-08-17T07:04:26;102149.22;;;17.35;74.82
80184;BME280;69682;52.138;5.440;2023-08-17T07:06:53;102149.22;;;17.35;74.90
80184;BME280;69682;52.138;5.440;2023-08-17T07:09:19;102153.50;;;17.38;74.28
80184;BME280;69682;52.138;5.440;2023-08-17T07:11:47;102159.63;;;17.40;74.94
80184;BME280;69682;52.138;5.440;2023-08-17T07:14:14;102157.41;;;17.45;74.59
80184;BME280;69682;52.138;5.440;2023-08-17T07:16:40;102156.16;;;17.49;74.66
80184;BME280;69682;52.138;5.440;2023-08-17T07:19:07;102147.94;;;17.51;74.66
80184;BME280;69682;52.138;5.440;2023-08-17T07:21:33;102145.97;;;17.53;74.61
80184;BME280;69682;52.138;5.440;2023-08-17T07:24:11;102156.47;;;17.56;74.33
80184;BME280;69682;52.138;5.440;2023-08-17T07:26:38;102154.66;;;17.56;73.85
80184;BME280;69682;52.138;5.440;2023-08-17T07:29:04;102162.75;;;17.56;74.47
80184;BME280;69682;52.138;5.440;2023-08-17T07:31:31;102164.50;;;17.67;74.61
80184;BME280;69682;52.138;5.440;2023-08-17T07:34:00;102162.88;;;17.76;74.34
80184;BME280;69682;52.138;5.440;2023-08-17T07:36:27;102149.50;;;17.85;74.88
80184;BME280;69682;52.138;5.440;2023-08-17T07:38:54;102157.75;;;17.93;74.40
80184;BME280;69682;52.138;5.440;2023-08-17T07:41:21;102148.59;;;18.06;73.85
80184;BME280;69682;52.138;5.440;2023-08-17T07:43:48;102146.25;;;18.12;73.59
80184;BME280;69682;52.138;5.440;2023-08-17T07:46:14;102144.97;;;18.16;73.14
80184;BME280;69682;52.138;5.440;2023-08-17T07:48:41;102144.44;;;18.23;72.67
80184;BME280;69682;52.138;5.440;2023-08-17T07:51:08;102144.31;;;18.24;72.63
80184;BME280;69682;52.138;5.440;2023-08-17T07:53:34;102149.38;;;18.17;72.75
80184;BME280;69682;52.138;5.440;2023-08-17T07:56:01;102145.13;;;18.15;72.86
80184;BME280;69682;52.138;5.440;2023-08-17T07:58:27;102152.22;;;18.16;73.08
80184;BME280;69682;52.138;5.440;2023-08-17T08:00:54;102156.50;;;18.19;72.93
80184;BME280;69682;52.138;5.440;2023-08-17T08:03:20;102161.03;;;18.18;72.64
80184;BME280;69682;52.138;5.440;2023-08-17T08:05:47;102160.16;;;18.17;73.19
80184;BME280;69682;52.138;5.440;2023-08-17T08:08:13;102160.63;;;18.23;72.77
80184;BME280;69682;52.138;5.440;2023-08-17T08:10:41;102161.94;;;18.28;73.17
80184;BME280;69682;52.138;5.440;2023-08-17T08:13:07;102152.75;;;18.41;72.76
80184;BME280;69682;52.138;5.440;2023-08-17T08:15:34;102159.44;;;18.46;72.70
80184;BME280;69682;52.138;5.440;2023-08-17T08:18:00;102155.91;;;18.46;72.27
80184;BME280;69682;52.138;5.440;2023-08-17T08:20:27;102152.91;;;18.49;72.19
80184;BME280;69682;52.138;5.440;2023-08-17T08:22:54;102155.22;;;18.53;72.41
80184;BME280;69682;52.138;5.440;2023-08-17T08:25:21;102158.06;;;18.61;72.62
80184;BME280;69682;52.138;5.440;2023-08-17T08:27:47;102161.09;;;18.68;72.38
80184;BME280;69682;52.138;5.440;2023-08-17T08:30:14;102158.13;;;18.71;71.74
80184;BME280;69682;52.138;5.440;2023-08-17T08:32:41;102152.84;;;18.70;72.30
80184;BME280;69682;52.138;5.440;2023-08-17T08:35:07;102147.31;;;18.71;71.82
80184;BME280;69682;52.138;5.440;2023-08-17T08:37:34;102149.88;;;18.73;72.42
80184;BME280;69682;52.138;5.440;2023-08-17T08:40:00;102151.63;;;18.83;72.20
80184;BME280;69682;52.138;5.440;2023-08-17T08:42:27;102153.91;;;18.88;72.00
80184;BME280;69682;52.138;5.440;2023-08-17T08:44:54;102155.91;;;18.86;72.12
80184;BME280;69682;52.138;5.440;2023-08-17T08:47:22;102156.59;;;18.88;71.74
80184;BME280;69682;52.138;5.440;2023-08-17T08:50:02;102147.09;;;18.94;72.15
80184;BME280;69682;52.138;5.440;2023-08-17T08:52:42;102149.09;;;18.92;72.43
80184;BME280;69682;52.138;5.440;2023-08-17T08:55:18;102146.25;;;19.03;71.60
80184;BME280;69682;52.138;5.440;2023-08-17T08:57:46;102149.28;;;19.10;70.88
80184;BME280;69682;52.138;5.440;2023-08-17T09:00:18;102152.81;;;19.10;70.70
80184;BME280;69682;52.138;5.440;2023-08-17T09:02:45;102148.53;;;19.08;70.81
80184;BME280;69682;52.138;5.440;2023-08-17T09:05:12;102143.03;;;19.09;71.03
80184;BME280;69682;52.138;5.440;2023-08-17T09:07:41;102143.16;;;19.17;71.60
80184;BME280;69682;52.138;5.440;2023-08-17T09:10:09;102135.34;;;19.34;71.55
80184;BME280;69682;52.138;5.440;2023-08-17T09:12:36;102143.72;;;19.40;71.04
80184;BME280;69682;52.138;5.440;2023-08-17T09:15:07;102130.63;;;19.55;70.89
80184;BME280;69682;52.138;5.440;2023-08-17T09:17:33;102126.78;;;19.67;70.72
80184;BME280;69682;52.138;5.440;2023-08-17T09:20:03;102121.97;;;19.71;68.58
80184;BME280;69682;52.138;5.440;2023-08-17T09:22:39;102121.78;;;19.63;69.97
80184;BME280;69682;52.138;5.440;2023-08-17T09:25:06;102119.84;;;19.65;70.40
80184;BME280;69682;52.138;5.440;2023-08-17T09:27:34;102124.78;;;19.69;71.14
80184;BME280;69682;52.138;5.440;2023-08-17T09:30:10;102118.00;;;19.65;70.74
80184;BME280;69682;52.138;5.440;2023-08-17T09:32:37;102119.84;;;19.65;70.87
80184;BME280;69682;52.138;5.440;2023-08-17T09:35:05;102115.84;;;19.69;70.49
80184;BME280;69682;52.138;5.440;2023-08-17T09:37:33;102117.38;;;19.81;69.98
80184;BME280;69682;52.138;5.440;2023-08-17T09:40:00;102115.81;;;19.79;69.99
80184;BME280;69682;52.138;5.440;2023-08-17T09:42:27;102114.97;;;19.78;70.42
80184;BME280;69682;52.138;5.440;2023-08-17T09:44:54;102109.25;;;19.81;69.90
80184;BME280;69682;52.138;5.440;2023-08-17T09:47:22;102111.84;;;19.83;70.29
80184;BME280;69682;52.138;5.440;2023-08-17T09:49:53;102110.53;;;19.87;69.35
80184;BME280;69682;52.138;5.440;2023-08-17T09:52:21;102105.13;;;19.87;69.09
80184;BME280;69682;52.138;5.440;2023-08-17T09:54:48;102109.81;;;19.85;69.55
80184;BME280;69682;52.138;5.440;2023-08-17T09:57:15;102110.53;;;19.87;69.13
80184;BME280;69682;52.138;5.440;2023-08-17T09:59:47;102108.66;;;19.87;69.59
80184;BME280;69682;52.138;5.440;2023-08-17T10:02:22;102109.81;;;19.94;69.51
80184;BME280;69682;52.138;5.440;2023-08-17T10:04:52;102104.81;;;19.90;69.18
80184;BME280;69682;52.138;5.440;2023-08-17T10:07:20;102096.41;;;19.93;69.70
80184;BME280;69682;52.138;5.440;2023-08-17T10:09:52;102098.41;;;19.91;69.13
80184;BME280;69682;52.138;5.440;2023-08-17T10:12:20;102103.13;;;19.89;69.78
80184;BME280;69682;52.138;5.440;2023-08-17T10:14:55;102095.84;;;19.89;69.53
80184;BME280;69682;52.138;5.440;2023-08-17T10:17:26;102092.00;;;19.92;69.27
80184;BME280;69682;52.138;5.440;2023-08-17T10:19:57;102088.28;;;19.93;69.46
80184;BME280;69682;52.138;5.440;2023-08-17T10:25:12;102090.16;;;19.92;69.24
80184;BME280;69682;52.138;5.440;2023-08-17T10:27:41;102087.59;;;19.91;69.43
80184;BME280;69682;52.138;5.440;2023-08-17T10:30:08;102093.28;;;19.98;69.63
80184;BME280;69682;52.138;5.440;2023-08-17T10:32:36;102076.81;;;20.09;69.46
80184;BME280;69682;52.138;5.440;2023-08-17T10:35:04;102082.66;;;20.14;68.02
80184;BME280;69682;52.138;5.440;2023-08-17T10:37:31;102083.81;;;20.11;69.21
80184;BME280;69682;52.138;5.440;2023-08-17T10:39:58;102087.63;;;20.18;68.56
80184;BME280;69682;52.138;5.440;2023-08-17T10:42:32;102086.06;;;20.16;68.82
80184;BME280;69682;52.138;5.440;2023-08-17T10:45:01;102085.66;;;20.11;68.82
80184;BME280;69682;52.138;5.440;2023-08-17T10:47:32;102088.66;;;20.08;68.82
80184;BME280;69682;52.138;5.440;2023-08-17T10:50:03;102083.72;;;20.03;68.42
80184;BME280;69682;52.138;5.440;2023-08-17T10:52:31;102085.13;;;20.07;68.45
80184;BME280;69682;52.138;5.440;2023-08-17T10:55:00;102092.94;;;20.10;69.23
80184;BME280;69682;52.138;5.440;2023-08-17T10:57:40;102089.78;;;20.15;69.28
80184;BME280;69682;52.138;5.440;2023-08-17T11:03:00;102091.97;;;20.02;70.06
80184;BME280;69682;52.138;5.440;2023-08-17T11:05:44;102080.72;;;20.06;69.40
80184;BME280;69682;52.138;5.440;2023-08-17T11:08:32;102082.53;;;20.06;69.25
80184;BME280;69682;52.138;5.440;2023-08-17T11:13:34;102076.56;;;20.12;69.48
80184;BME280;69682;52.138;5.440;2023-08-17T11:16:02;102081.06;;;20.21;69.03
80184;BME280;69682;52.138;5.440;2023-08-17T11:18:31;102084.03;;;20.28;69.01
80184;BME280;69682;52.138;5.440;2023-08-17T11:20:57;102081.63;;;20.25;69.32
80184;BME280;69682;52.138;5.440;2023-08-17T11:23:24;102077.22;;;20.24;69.33
80184;BME280;69682;52.138;5.440;2023-08-17T11:25:52;102075.78;;;20.19;69.05
80184;BME280;69682;52.138;5.440;2023-08-17T11:28:21;102082.41;;;20.07;69.65
80184;BME280;69682;52.138;5.440;2023-08-17T11:31:00;102082.81;;;20.12;69.80
80184;BME280;69682;52.138;5.440;2023-08-17T11:33:28;102074.94;;;20.19;69.59
80184;BME280;69682;52.138;5.440;2023-08-17T11:35:59;102079.41;;;20.10;69.16
80184;BME280;69682;52.138;5.440;2023-08-17T11:38:34;102086.50;;;20.11;69.79
80184;BME280;69682;52.138;5.440;2023-08-17T11:41:02;102085.34;;;20.14;70.09
80184;BME280;69682;52.138;5.440;2023-08-17T11:43:30;102081.06;;;20.21;69.00
80184;BME280;69682;52.138;5.440;2023-08-17T11:45:57;102083.81;;;20.11;69.48
80184;BME280;69682;52.138;5.440;2023-08-17T11:48:24;102081.91;;;20.22;70.00
80184;BME280;69682;52.138;5.440;2023-08-17T11:50:53;102083.28;;;20.35;69.67
80184;BME280;69682;52.138;5.440;2023-08-17T11:53:20;102072.16;;;20.38;68.89
80184;BME280;69682;52.138;5.440;2023-08-17T11:55:48;102068.03;;;20.34;68.80
80184;BME280;69682;52.138;5.440;2023-08-17T11:58:42;102072.47;;;20.35;68.64
80184;BME280;69682;52.138;5.440;2023-08-17T12:01:10;102077.00;;;20.35;69.45
80184;BME280;69682;52.138;5.440;2023-08-17T12:03:38;102076.56;;;20.39;69.11
80184;BME280;69682;52.138;5.440;2023-08-17T12:06:06;102073.84;;;20.39;68.96
80184;BME280;69682;52.138;5.440;2023-08-17T12:08:34;102075.00;;;20.37;69.67
80184;BME280;69682;52.138;5.440;2023-08-17T12:11:02;102076.44;;;20.31;69.85
80184;BME280;69682;52.138;5.440;2023-08-17T12:13:33;102073.81;;;20.22;69.18
80184;BME280;69682;52.138;5.440;2023-08-17T12:16:04;102065.81;;;20.20;69.86
80184;BME280;69682;52.138;5.440;2023-08-17T12:18:34;102068.69;;;20.18;70.25
80184;BME280;69682;52.138;5.440;2023-08-17T12:21:03;102077.59;;;20.29;69.79
80184;BME280;69682;52.138;5.440;2023-08-17T12:23:49;102074.03;;;20.28;69.95
80184;BME280;69682;52.138;5.440;2023-08-17T12:26:22;102070.50;;;20.28;70.51
80184;BME280;69682;52.138;5.440;2023-08-17T12:28:49;102069.22;;;20.22;69.83
80184;BME280;69682;52.138;5.440;2023-08-17T12:31:21;102071.34;;;20.28;70.27
80184;BME280;69682;52.138;5.440;2023-08-17T12:33:48;102071.44;;;20.36;70.56
80184;BME280;69682;52.138;5.440;2023-08-17T12:36:14;102067.13;;;20.43;69.85
80184;BME280;69682;52.138;5.440;2023-08-17T12:38:41;102062.53;;;20.44;70.02
80184;BME280;69682;52.138;5.440;2023-08-17T12:41:11;102073.38;;;20.44;69.20
80184;BME280;69682;52.138;5.440;2023-08-17T12:43:38;102070.59;;;20.36;69.89
80184;BME280;69682;52.138;5.440;2023-08-17T12:46:04;102069.75;;;20.35;70.63
80184;BME280;69682;52.138;5.440;2023-08-17T12:48:31;102072.72;;;20.32;70.11
80184;BME280;69682;52.138;5.440;2023-08-17T12:51:01;102074.88;;;20.29;69.86
80184;BME280;69682;52.138;5.440;2023-08-17T12:53:30;102076.91;;;20.27;70.42
80184;BME280;69682;52.138;5.440;2023-08-17T12:55:57;102077.47;;;20.30;69.97
80184;BME280;69682;52.138;5.440;2023-08-17T12:58:24;102074.50;;;20.24;70.15
80184;BME280;69682;52.138;5.440;2023-08-17T13:00:51;102081.16;;;20.29;69.61
80184;BME280;69682;52.138;5.440;2023-08-17T13:03:20;102077.59;;;20.29;69.35
80184;BME280;69682;52.138;5.440;2023-08-17T13:05:47;102081.84;;;20.31;69.59